sensor_id;sensor_type;location;lat;lon;timestamp;temperature;humidity
56725;DHT22;42608;52.776;6.968;2022-10-26T00:00:04;11.20;99.90
56725;DHT22;42608;52.776;6.968;2022-10-26T00:02:30;11.20;99.90
56725;DHT22;42608;52.776;6.968;2022-10-26T00:04:55;11.20;99.90
56725;DHT22;42608;52.776;6.968;2022-10-26T00:07:21;11.10;99.90
56725;DHT22;42608;52.776;6.968;2022-10-26T00:09:46;11.10;99.90
56725;DHT22;42608;52.776;6.968;2022-10-26T00:12:12;11.10;99.90
56725;DHT22;42608;52.776;6.968;2022-10-26T00:14:38;11.10;99.90
56725;DHT22;42608;52.776;6.968;2022-10-26T00:17:03;11.10;99.90
56725;DHT22;42608;52.776;6.968;2022-10-26T00:19:31;11.10;99.90
56725;DHT22;42608;52.776;6.968;2022-10-26T00:21:57;11.10;99.90
56725;DHT22;42608;52.776;6.968;2022-10-26T00:24:22;11.10;99.90
56725;DHT22;42608;52.776;6.968;2022-10-26T00:26:48;11.00;99.90
56725;DHT22;42608;52.776;6.968;2022-10-26T00:29:13;11.00;99.90
56725;DHT22;42608;52.776;6.968;2022-10-26T00:31:39;11.00;99.90
56725;DHT22;42608;52.776;6.968;2022-10-26T00:34:04;11.00;99.90
56725;DHT22;42608;52.776;6.968;2022-10-26T00:36:30;10.90;99.90
56725;DHT22;42608;52.776;6.968;2022-10-26T00:38:56;11.00;99.90
56725;DHT22;42608;52.776;6.968;2022-10-26T00:41:26;11.00;99.90
56725;DHT22;42608;52.776;6.968;2022-10-26T00:43:53;10.90;99.90
56725;DHT22;42608;52.776;6.968;2022-10-26T00:46:20;10.90;99.90
56725;DHT22;42608;52.776;6.968;2022-10-26T00:48:51;10.90;99.90
56725;DHT22;42608;52.776;6.968;2022-10-26T00:51:28;10.90;99.90
56725;DHT22;42608;52.776;6.968;2022-10-26T00:53:59;10.90;99.90
56725;DHT22;42608;52.776;6.968;2022-10-26T00:56:26;10.80;99.90
56725;DHT22;42608;52.776;6.968;2022-10-26T00:58:53;10.80;99.90
56725;DHT22;42608;52.776;6.968;2022-10-26T01:01:19;10.80;99.90
56725;DHT22;42608;52.776;6.968;2022-10-26T01:03:44;10.80;99.90
56725;DHT22;42608;52.776;6.968;2022-10-26T01:06:10;10.70;99.90
56725;DHT22;42608;52.776;6.968;2022-10-26T01:08:36;10.70;99.90
56725;DHT22;42608;52.776;6.968;2022-10-26T01:11:02;10.70;99.90
56725;DHT22;42608;52.776;6.968;2022-10-26T01:13:28;10.70;99.90
56725;DHT22;42608;52.776;6.968;2022-10-26T01:24:06;10.60;99.90
56725;DHT22;42608;52.776;6.968;2022-10-26T01:26:42;10.60;99.90
56725;DHT22;42608;52.776;6.968;2022-10-26T01:29:13;10.50;99.90
56725;DHT22;42608;52.776;6.968;2022-10-26T01:31:54;10.50;99.90
56725;DHT22;42608;52.776;6.968;2022-10-26T01:34:23;10.50;99.90
56725;DHT22;42608;52.776;6.968;2022-10-26T01:36:54;10.50;99.90
56725;DHT22;42608;52.776;6.968;2022-10-26T01:39:21;10.40;99.90
56725;DHT22;42608;52.776;6.968;2022-10-26T01:41:49;10.40;99.90
56725;DHT22;42608;52.776;6.968;2022-10-26T01:44:17;10.40;99.90
56725;DHT22;42608;52.776;6.968;2022-10-26T01:46:45;10.40;99.90
56725;DHT22;42608;52.776;6.968;2022-10-26T01:49:12;10.40;99.90
56725;DHT22;42608;52.776;6.968;2022-10-26T01:51:39;10.40;99.90
56725;DHT22;42608;52.776;6.968;2022-10-26T01:54:06;10.40;99.90
56725;DHT22;42608;52.776;6.968;2022-10-26T01:56:33;10.30;99.90
56725;DHT22;42608;52.776;6.968;2022-10-26T02:01:33;10.30;99.90
56725;DHT22;42608;52.776;6.968;2022-10-26T02:08:56;10.30;99.90
56725;DHT22;42608;52.776;6.968;2022-10-26T02:11:36;10.20;99.90
56725;DHT22;42608;52.776;6.968;2022-10-26T02:14:06;10.20;99.90
56725;DHT22;42608;52.776;6.968;2022-10-26T02:16:37;10.20;99.90
56725;DHT22;42608;52.776;6.968;2022-10-26T02:19:13;10.20;99.90
56725;DHT22;42608;52.776;6.968;2022-10-26T02:21:43;10.20;99.90
56725;DHT22;42608;52.776;6.968;2022-10-26T02:24:11;10.20;99.90
56725;DHT22;42608;52.776;6.968;2022-10-26T02:26:38;10.20;99.90
56725;DHT22;42608;52.776;6.968;2022-10-26T02:29:05;10.20;99.90
56725;DHT22;42608;52.776;6.968;2022-10-26T02:31:32;10.20;99.90
56725;DHT22;42608;52.776;6.968;2022-10-26T02:33:58;10.20;99.90
56725;DHT22;42608;52.776;6.968;2022-10-26T02:36:27;10.20;99.90
56725;DHT22;42608;52.776;6.968;2022-10-26T02:38:54;10.20;99.90
56725;DHT22;42608;52.776;6.968;2022-10-26T02:41:20;10.10;99.90
56725;DHT22;42608;52.776;6.968;2022-10-26T02:43:49;10.10;99.90
56725;DHT22;42608;52.776;6.968;2022-10-26T02:46:15;10.10;99.90
56725;DHT22;42608;52.776;6.968;2022-10-26T02:48:42;10.10;99.90
56725;DHT22;42608;52.776;6.968;2022-10-26T02:51:16;10.10;99.90
56725;DHT22;42608;52.776;6.968;2022-10-26T02:56:13;10.10;99.90
56725;DHT22;42608;52.776;6.968;2022-10-26T02:58:43;10.10;99.90
56725;DHT22;42608;52.776;6.968;2022-10-26T03:01:09;10.10;99.90
56725;DHT22;42608;52.776;6.968;2022-10-26T03:03:35;10.10;99.90
56725;DHT22;42608;52.776;6.968;2022-10-26T03:06:00;10.10;99.90
56725;DHT22;42608;52.776;6.968;2022-10-26T03:08:26;10.10;99.90
56725;DHT22;42608;52.776;6.968;2022-10-26T03:10:52;10.10;99.90
56725;DHT22;42608;52.776;6.968;2022-10-26T03:13:17;10.10;99.90
56725;DHT22;42608;52.776;6.968;2022-10-26T03:15:43;10.10;99.90
56725;DHT22;42608;52.776;6.968;2022-10-26T03:18:08;10.10;99.90
56725;DHT22;42608;52.776;6.968;2022-10-26T03:20:34;10.10;99.90
56725;DHT22;42608;52.776;6.968;2022-10-26T03:23:00;10.10;99.90
56725;DHT22;42608;52.776;6.968;2022-10-26T03:25:25;10.10;99.90
56725;DHT22;42608;52.776;6.968;2022-10-26T03:28:00;10.10;99.90
56725;DHT22;42608;52.776;6.968;2022-10-26T03:30:27;10.10;99.90
56725;DHT22;42608;52.776;6.968;2022-10-26T03:32:52;10.10;99.90
56725;DHT22;42608;52.776;6.968;2022-10-26T03:35:18;10.10;99.90
56725;DHT22;42608;52.776;6.968;2022-10-26T03:37:44;10.10;99.90
56725;DHT22;42608;52.776;6.968;2022-10-26T03:40:09;10.10;99.90
56725;DHT22;42608;52.776;6.968;2022-10-26T03:42:35;10.10;99.90
56725;DHT22;42608;52.776;6.968;2022-10-26T03:45:01;10.10;99.90
56725;DHT22;42608;52.776;6.968;2022-10-26T03:47:27;10.10;99.90
56725;DHT22;42608;52.776;6.968;2022-10-26T03:49:52;10.10;99.90
56725;DHT22;42608;52.776;6.968;2022-10-26T03:52:21;10.10;99.90
56725;DHT22;42608;52.776;6.968;2022-10-26T03:54:48;10.10;99.90
56725;DHT22;42608;52.776;6.968;2022-10-26T03:57:14;10.10;99.90
56725;DHT22;42608;52.776;6.968;2022-10-26T03:59:39;10.10;99.90
56725;DHT22;42608;52.776;6.968;2022-10-26T04:02:05;10.10;99.90
56725;DHT22;42608;52.776;6.968;2022-10-26T04:04:31;10.10;99.90
56725;DHT22;42608;52.776;6.968;2022-10-26T04:06:56;10.10;99.90
56725;DHT22;42608;52.776;6.968;2022-10-26T04:09:22;10.10;99.90
56725;DHT22;42608;52.776;6.968;2022-10-26T04:11:48;10.10;99.90
56725;DHT22;42608;52.776;6.968;2022-10-26T04:14:13;10.10;99.90
56725;DHT22;42608;52.776;6.968;2022-10-26T04:16:39;10.10;99.90
56725;DHT22;42608;52.776;6.968;2022-10-26T04:19:04;10.10;99.90
56725;DHT22;42608;52.776;6.968;2022-10-26T04:21:30;10.10;99.90
56725;DHT22;42608;52.776;6.968;2022-10-26T04:23:57;10.10;99.90
56725;DHT22;42608;52.776;6.968;2022-10-26T04:26:23;10.10;99.90
56725;DHT22;42608;52.776;6.968;2022-10-26T04:28:48;10.10;99.90
56725;DHT22;42608;52.776;6.968;2022-10-26T04:31:14;10.10;99.90
56725;DHT22;42608;52.776;6.968;2022-10-26T04:33:40;10.10;99.90
56725;DHT22;42608;52.776;6.968;2022-10-26T04:36:05;10.10;99.90
56725;DHT22;42608;52.776;6.968;2022-10-26T04:38:31;10.10;99.90
56725;DHT22;42608;52.776;6.968;2022-10-26T04:40:56;10.10;99.90
56725;DHT22;42608;52.776;6.968;2022-10-26T04:43:22;10.10;99.90
56725;DHT22;42608;52.776;6.968;2022-10-26T04:45:47;10.10;99.90
56725;DHT22;42608;52.776;6.968;2022-10-26T04:48:13;10.10;99.90
56725;DHT22;42608;52.776;6.968;2022-10-26T04:50:39;10.10;99.90
56725;DHT22;42608;52.776;6.968;2022-10-26T04:53:05;10.10;99.90
56725;DHT22;42608;52.776;6.968;2022-10-26T04:55:31;10.20;99.90
56725;DHT22;42608;52.776;6.968;2022-10-26T04:57:57;10.10;99.90
56725;DHT22;42608;52.776;6.968;2022-10-26T05:00:22;10.20;99.90
56725;DHT22;42608;52.776;6.968;2022-10-26T05:02:48;10.10;99.90
56725;DHT22;42608;52.776;6.968;2022-10-26T05:05:13;10.20;99.90
56725;DHT22;42608;52.776;6.968;2022-10-26T05:07:39;10.20;99.90
56725;DHT22;42608;52.776;6.968;2022-10-26T05:10:05;10.20;99.90
56725;DHT22;42608;52.776;6.968;2022-10-26T05:12:30;10.20;99.90
56725;DHT22;42608;52.776;6.968;2022-10-26T05:14:56;10.20;99.90
56725;DHT22;42608;52.776;6.968;2022-10-26T05:17:24;10.20;99.90
56725;DHT22;42608;52.776;6.968;2022-10-26T05:19:49;10.20;99.90
56725;DHT22;42608;52.776;6.968;2022-10-26T05:22:28;10.30;99.90
56725;DHT22;42608;52.776;6.968;2022-10-26T05:24:54;10.30;99.90
56725;DHT22;42608;52.776;6.968;2022-10-26T05:27:19;10.30;99.90
56725;DHT22;42608;52.776;6.968;2022-10-26T05:29:45;10.30;99.90
56725;DHT22;42608;52.776;6.968;2022-10-26T05:32:10;10.30;99.90
56725;DHT22;42608;52.776;6.968;2022-10-26T05:34:36;10.30;99.90
56725;DHT22;42608;52.776;6.968;2022-10-26T05:37:02;10.30;99.90
56725;DHT22;42608;52.776;6.968;2022-10-26T05:39:30;10.30;99.90
56725;DHT22;42608;52.776;6.968;2022-10-26T05:41:56;10.30;99.90
56725;DHT22;42608;52.776;6.968;2022-10-26T05:44:21;10.30;99.90
56725;DHT22;42608;52.776;6.968;2022-10-26T05:46:47;10.30;99.90
56725;DHT22;42608;52.776;6.968;2022-10-26T05:49:12;10.30;99.90
56725;DHT22;42608;52.776;6.968;2022-10-26T05:51:38;10.40;99.90
56725;DHT22;42608;52.776;6.968;2022-10-26T05:54:04;10.40;99.90
56725;DHT22;42608;52.776;6.968;2022-10-26T05:58:58;10.40;99.90
56725;DHT22;42608;52.776;6.968;2022-10-26T06:03:59;10.50;99.90
56725;DHT22;42608;52.776;6.968;2022-10-26T06:06:28;10.40;99.90
56725;DHT22;42608;52.776;6.968;2022-10-26T06:08:57;10.50;99.90
56725;DHT22;42608;52.776;6.968;2022-10-26T06:11:22;10.50;99.90
56725;DHT22;42608;52.776;6.968;2022-10-26T06:13:48;10.50;99.90
56725;DHT22;42608;52.776;6.968;2022-10-26T06:16:20;10.50;99.90
56725;DHT22;42608;52.776;6.968;2022-10-26T06:21:46;10.50;99.90
56725;DHT22;42608;52.776;6.968;2022-10-26T06:27:04;10.60;99.90
56725;DHT22;42608;52.776;6.968;2022-10-26T06:29:54;10.50;99.90
56725;DHT22;42608;52.776;6.968;2022-10-26T06:32:21;10.60;99.90
56725;DHT22;42608;52.776;6.968;2022-10-26T06:34:47;10.60;99.90
56725;DHT22;42608;52.776;6.968;2022-10-26T06:37:15;10.60;99.90
56725;DHT22;42608;52.776;6.968;2022-10-26T06:39:43;10.60;99.90
56725;DHT22;42608;52.776;6.968;2022-10-26T06:42:09;10.60;99.90
56725;DHT22;42608;52.776;6.968;2022-10-26T06:44:35;10.60;99.90
56725;DHT22;42608;52.776;6.968;2022-10-26T06:49:40;10.70;99.90
56725;DHT22;42608;52.776;6.968;2022-10-26T06:52:17;10.70;99.90
56725;DHT22;42608;52.776;6.968;2022-10-26T06:54:49;10.70;99.90
56725;DHT22;42608;52.776;6.968;2022-10-26T06:57:16;10.70;99.90
56725;DHT22;42608;52.776;6.968;2022-10-26T06:59:43;10.70;99.90
56725;DHT22;42608;52.776;6.968;2022-10-26T07:02:13;10.70;99.90
56725;DHT22;42608;52.776;6.968;2022-10-26T07:04:39;10.80;99.90
56725;DHT22;42608;52.776;6.968;2022-10-26T07:07:05;10.80;99.90
56725;DHT22;42608;52.776;6.968;2022-10-26T07:09:30;10.80;99.90
56725;DHT22;42608;52.776;6.968;2022-10-26T07:11:56;10.70;99.90
56725;DHT22;42608;52.776;6.968;2022-10-26T07:14:21;10.80;99.90
56725;DHT22;42608;52.776;6.968;2022-10-26T07:16:47;10.80;99.90
56725;DHT22;42608;52.776;6.968;2022-10-26T07:19:12;10.80;99.90
56725;DHT22;42608;52.776;6.968;2022-10-26T07:21:38;10.80;99.90
56725;DHT22;42608;52.776;6.968;2022-10-26T07:24:03;10.80;99.90
56725;DHT22;42608;52.776;6.968;2022-10-26T07:26:29;10.90;99.90
56725;DHT22;42608;52.776;6.968;2022-10-26T07:28:55;10.90;99.90
56725;DHT22;42608;52.776;6.968;2022-10-26T07:31:20;10.90;99.90
56725;DHT22;42608;52.776;6.968;2022-10-26T07:33:46;10.90;99.90
56725;DHT22;42608;52.776;6.968;2022-10-26T07:36:11;10.90;99.90
56725;DHT22;42608;52.776;6.968;2022-10-26T07:38:37;10.90;99.90
56725;DHT22;42608;52.776;6.968;2022-10-26T07:41:03;10.90;99.90
56725;DHT22;42608;52.776;6.968;2022-10-26T07:43:29;10.90;99.90
56725;DHT22;42608;52.776;6.968;2022-10-26T07:45:54;11.00;99.90
56725;DHT22;42608;52.776;6.968;2022-10-26T07:48:20;11.00;99.90
56725;DHT22;42608;52.776;6.968;2022-10-26T07:50:46;11.00;99.90
56725;DHT22;42608;52.776;6.968;2022-10-26T07:53:11;11.00;99.90
56725;DHT22;42608;52.776;6.968;2022-10-26T07:55:37;11.10;99.90
56725;DHT22;42608;52.776;6.968;2022-10-26T07:58:03;11.10;99.90
56725;DHT22;42608;52.776;6.968;2022-10-26T08:00:28;11.20;99.90
56725;DHT22;42608;52.776;6.968;2022-10-26T08:02:54;11.20;99.90
56725;DHT22;42608;52.776;6.968;2022-10-26T08:05:20;11.20;99.90
56725;DHT22;42608;52.776;6.968;2022-10-26T08:07:45;11.20;99.90
56725;DHT22;42608;52.776;6.968;2022-10-26T08:10:11;11.30;99.90
56725;DHT22;42608;52.776;6.968;2022-10-26T08:12:37;11.30;99.90
56725;DHT22;42608;52.776;6.968;2022-10-26T08:15:03;11.40;99.90
56725;DHT22;42608;52.776;6.968;2022-10-26T08:17:29;11.50;99.90
56725;DHT22;42608;52.776;6.968;2022-10-26T08:19:54;11.50;99.90
56725;DHT22;42608;52.776;6.968;2022-10-26T08:22:20;11.50;99.90
56725;DHT22;42608;52.776;6.968;2022-10-26T08:24:45;11.60;99.90
56725;DHT22;42608;52.776;6.968;2022-10-26T08:27:12;11.60;99.90
56725;DHT22;42608;52.776;6.968;2022-10-26T08:29:39;11.70;99.90
56725;DHT22;42608;52.776;6.968;2022-10-26T08:32:04;11.70;99.90
56725;DHT22;42608;52.776;6.968;2022-10-26T08:34:30;11.70;99.90
56725;DHT22;42608;52.776;6.968;2022-10-26T08:36:55;11.70;99.90
56725;DHT22;42608;52.776;6.968;2022-10-26T08:39:21;11.70;99.90
56725;DHT22;42608;52.776;6.968;2022-10-26T08:41:47;11.70;99.90
56725;DHT22;42608;52.776;6.968;2022-10-26T08:46:47;11.90;99.90
56725;DHT22;42608;52.776;6.968;2022-10-26T08:49:28;12.00;99.90
56725;DHT22;42608;52.776;6.968;2022-10-26T08:51:56;12.10;99.90
56725;DHT22;42608;52.776;6.968;2022-10-26T08:54:27;12.20;99.90
56725;DHT22;42608;52.776;6.968;2022-10-26T08:56:57;12.30;99.90
56725;DHT22;42608;52.776;6.968;2022-10-26T08:59:27;12.40;99.90
56725;DHT22;42608;52.776;6.968;2022-10-26T09:01:54;12.50;99.90
56725;DHT22;42608;52.776;6.968;2022-10-26T09:04:21;12.50;99.90
56725;DHT22;42608;52.776;6.968;2022-10-26T09:06:54;12.60;99.90
56725;DHT22;42608;52.776;6.968;2022-10-26T09:09:23;12.70;99.90
56725;DHT22;42608;52.776;6.968;2022-10-26T09:14:20;12.80;99.90
56725;DHT22;42608;52.776;6.968;2022-10-26T09:21:57;13.00;99.90
56725;DHT22;42608;52.776;6.968;2022-10-26T09:24:31;13.10;99.90
56725;DHT22;42608;52.776;6.968;2022-10-26T09:27:41;13.20;99.90
56725;DHT22;42608;52.776;6.968;2022-10-26T09:29:46;13.20;99.90
56725;DHT22;42608;52.776;6.968;2022-10-26T09:32:16;13.30;99.90
56725;DHT22;42608;52.776;6.968;2022-10-26T09:35:02;13.40;99.90
56725;DHT22;42608;52.776;6.968;2022-10-26T09:37:31;13.40;99.90
56725;DHT22;42608;52.776;6.968;2022-10-26T09:40:12;13.50;99.90
56725;DHT22;42608;52.776;6.968;2022-10-26T09:42:51;13.60;99.90
56725;DHT22;42608;52.776;6.968;2022-10-26T09:45:19;13.60;99.90
56725;DHT22;42608;52.776;6.968;2022-10-26T09:47:50;13.70;99.90
56725;DHT22;42608;52.776;6.968;2022-10-26T09:50:19;13.80;99.90
56725;DHT22;42608;52.776;6.968;2022-10-26T09:52:46;13.90;99.90
56725;DHT22;42608;52.776;6.968;2022-10-26T09:55:12;14.00;99.90
56725;DHT22;42608;52.776;6.968;2022-10-26T09:57:39;14.00;99.90
56725;DHT22;42608;52.776;6.968;2022-10-26T10:00:05;14.10;99.90
56725;DHT22;42608;52.776;6.968;2022-10-26T10:02:31;14.20;99.90
56725;DHT22;42608;52.776;6.968;2022-10-26T10:04:57;14.30;99.90
56725;DHT22;42608;52.776;6.968;2022-10-26T10:07:23;14.40;99.90
56725;DHT22;42608;52.776;6.968;2022-10-26T10:12:33;14.60;99.90
56725;DHT22;42608;52.776;6.968;2022-10-26T10:14:59;14.70;99.90
56725;DHT22;42608;52.776;6.968;2022-10-26T10:17:24;14.90;99.90
56725;DHT22;42608;52.776;6.968;2022-10-26T10:19:50;15.00;99.90
56725;DHT22;42608;52.776;6.968;2022-10-26T10:27:22;15.20;99.90
56725;DHT22;42608;52.776;6.968;2022-10-26T10:32:15;15.40;99.90
56725;DHT22;42608;52.776;6.968;2022-10-26T10:34:41;15.50;99.90
56725;DHT22;42608;52.776;6.968;2022-10-26T10:37:23;15.60;99.90
56725;DHT22;42608;52.776;6.968;2022-10-26T10:39:50;15.60;99.90
56725;DHT22;42608;52.776;6.968;2022-10-26T10:42:21;15.70;99.90
56725;DHT22;42608;52.776;6.968;2022-10-26T10:44:49;15.70;99.90
56725;DHT22;42608;52.776;6.968;2022-10-26T10:47:26;15.80;99.90
56725;DHT22;42608;52.776;6.968;2022-10-26T10:49:53;15.80;99.90
56725;DHT22;42608;52.776;6.968;2022-10-26T10:52:24;15.90;99.90
56725;DHT22;42608;52.776;6.968;2022-10-26T10:54:50;15.90;99.90
56725;DHT22;42608;52.776;6.968;2022-10-26T10:59:52;16.10;99.90
56725;DHT22;42608;52.776;6.968;2022-10-26T11:05:18;16.20;99.90
56725;DHT22;42608;52.776;6.968;2022-10-26T11:07:52;16.20;99.90
56725;DHT22;42608;52.776;6.968;2022-10-26T11:10:19;16.20;99.90
56725;DHT22;42608;52.776;6.968;2022-10-26T11:12:54;16.30;99.90
56725;DHT22;42608;52.776;6.968;2022-10-26T11:15:22;16.40;99.90
56725;DHT22;42608;52.776;6.968;2022-10-26T11:20:21;16.50;99.90
56725;DHT22;42608;52.776;6.968;2022-10-26T11:25:18;16.60;99.90
56725;DHT22;42608;52.776;6.968;2022-10-26T11:28:09;16.60;99.90
56725;DHT22;42608;52.776;6.968;2022-10-26T11:30:35;16.60;99.90
56725;DHT22;42608;52.776;6.968;2022-10-26T11:33:12;16.70;99.90
56725;DHT22;42608;52.776;6.968;2022-10-26T11:38:13;16.70;99.90
56725;DHT22;42608;52.776;6.968;2022-10-26T11:40:48;16.80;99.90
56725;DHT22;42608;52.776;6.968;2022-10-26T11:43:27;16.90;99.90
56725;DHT22;42608;52.776;6.968;2022-10-26T11:51:05;16.90;99.90
56725;DHT22;42608;52.776;6.968;2022-10-26T11:53:37;17.00;99.90
56725;DHT22;42608;52.776;6.968;2022-10-26T11:56:04;17.00;99.90
56725;DHT22;42608;52.776;6.968;2022-10-26T11:58:33;17.10;99.90
56725;DHT22;42608;52.776;6.968;2022-10-26T12:01:00;17.10;99.90
56725;DHT22;42608;52.776;6.968;2022-10-26T12:03:29;17.20;99.90
56725;DHT22;42608;52.776;6.968;2022-10-26T12:05:56;17.20;99.90
56725;DHT22;42608;52.776;6.968;2022-10-26T12:08:35;17.30;99.90
56725;DHT22;42608;52.776;6.968;2022-10-26T12:13:32;17.40;99.90
56725;DHT22;42608;52.776;6.968;2022-10-26T12:18:47;17.60;99.90
56725;DHT22;42608;52.776;6.968;2022-10-26T12:21:14;17.60;99.90
56725;DHT22;42608;52.776;6.968;2022-10-26T12:33:58;17.80;99.90
56725;DHT22;42608;52.776;6.968;2022-10-26T12:39:25;17.90;99.90
56725;DHT22;42608;52.776;6.968;2022-10-26T12:41:58;17.80;99.90
56725;DHT22;42608;52.776;6.968;2022-10-26T12:44:59;17.90;99.90
56725;DHT22;42608;52.776;6.968;2022-10-26T12:49:59;17.90;99.90
56725;DHT22;42608;52.776;6.968;2022-10-26T12:52:43;17.90;99.90
56725;DHT22;42608;52.776;6.968;2022-10-26T13:00:23;18.10;99.90
56725;DHT22;42608;52.776;6.968;2022-10-26T13:02:53;18.20;99.90
56725;DHT22;42608;52.776;6.968;2022-10-26T13:07:49;18.20;99.90
56725;DHT22;42608;52.776;6.968;2022-10-26T13:12:48;18.30;99.90
56725;DHT22;42608;52.776;6.968;2022-10-26T13:15:21;18.30;99.90
56725;DHT22;42608;52.776;6.968;2022-10-26T13:17:58;18.40;99.90
56725;DHT22;42608;52.776;6.968;2022-10-26T13:20:24;18.40;99.90
56725;DHT22;42608;52.776;6.968;2022-10-26T13:22:49;18.40;99.90
56725;DHT22;42608;52.776;6.968;2022-10-26T13:25:28;18.40;99.90
56725;DHT22;42608;52.776;6.968;2022-10-26T13:28:02;18.40;99.90
56725;DHT22;42608;52.776;6.968;2022-10-26T13:32:54;18.40;99.90
56725;DHT22;42608;52.776;6.968;2022-10-26T13:35:22;18.40;99.90
56725;DHT22;42608;52.776;6.968;2022-10-26T13:37:49;18.40;99.90
56725;DHT22;42608;52.776;6.968;2022-10-26T13:40:19;18.40;99.90
56725;DHT22;42608;52.776;6.968;2022-10-26T13:42:47;18.40;99.90
56725;DHT22;42608;52.776;6.968;2022-10-26T13:48:04;18.40;99.90
56725;DHT22;42608;52.776;6.968;2022-10-26T13:50:40;18.40;99.90
56725;DHT22;42608;52.776;6.968;2022-10-26T13:53:14;18.40;99.90
56725;DHT22;42608;52.776;6.968;2022-10-26T13:55:51;18.30;99.90
56725;DHT22;42608;52.776;6.968;2022-10-26T14:03:26;18.30;99.90
56725;DHT22;42608;52.776;6.968;2022-10-26T14:05:52;18.30;99.90
56725;DHT22;42608;52.776;6.968;2022-10-26T14:08:18;18.30;99.90
56725;DHT22;42608;52.776;6.968;2022-10-26T14:10:45;18.30;99.90
56725;DHT22;42608;52.776;6.968;2022-10-26T14:13:12;18.30;99.90
56725;DHT22;42608;52.776;6.968;2022-10-26T14:15:41;18.30;99.90
56725;DHT22;42608;52.776;6.968;2022-10-26T14:18:11;18.30;99.90
56725;DHT22;42608;52.776;6.968;2022-10-26T14:20:38;18.30;99.90
56725;DHT22;42608;52.776;6.968;2022-10-26T14:23:04;18.30;99.90
56725;DHT22;42608;52.776;6.968;2022-10-26T14:25:29;18.30;99.90
56725;DHT22;42608;52.776;6.968;2022-10-26T14:27:55;18.30;99.90
56725;DHT22;42608;52.776;6.968;2022-10-26T14:30:22;18.30;99.90
56725;DHT22;42608;52.776;6.968;2022-10-26T14:32:48;18.30;99.90
56725;DHT22;42608;52.776;6.968;2022-10-26T14:35:14;18.30;99.90
56725;DHT22;42608;52.776;6.968;2022-10-26T14:40:16;18.30;99.90
56725;DHT22;42608;52.776;6.968;2022-10-26T14:42:42;18.30;99.90
56725;DHT22;42608;52.776;6.968;2022-10-26T14:47:58;18.30;99.90
56725;DHT22;42608;52.776;6.968;2022-10-26T14:50:25;18.20;99.90
56725;DHT22;42608;52.776;6.968;2022-10-26T14:52:56;18.20;99.90
56725;DHT22;42608;52.776;6.968;2022-10-26T14:55:22;18.20;99.90
56725;DHT22;42608;52.776;6.968;2022-10-26T14:57:49;18.20;99.90
56725;DHT22;42608;52.776;6.968;2022-10-26T15:02:47;18.10;99.90
56725;DHT22;42608;52.776;6.968;2022-10-26T15:05:16;18.10;99.90
56725;DHT22;42608;52.776;6.968;2022-10-26T15:07:42;18.00;99.90
56725;DHT22;42608;52.776;6.968;2022-10-26T15:12:53;18.00;99.90
56725;DHT22;42608;52.776;6.968;2022-10-26T15:15:19;17.90;99.90
56725;DHT22;42608;52.776;6.968;2022-10-26T15:17:52;17.90;99.90
56725;DHT22;42608;52.776;6.968;2022-10-26T15:20:22;17.90;99.90
56725;DHT22;42608;52.776;6.968;2022-10-26T15:22:49;17.90;99.90
56725;DHT22;42608;52.776;6.968;2022-10-26T15:25:22;17.90;99.90
56725;DHT22;42608;52.776;6.968;2022-10-26T15:27:48;17.80;99.90
56725;DHT22;42608;52.776;6.968;2022-10-26T15:32:40;17.70;99.90
56725;DHT22;42608;52.776;6.968;2022-10-26T15:37:41;17.70;99.90
56725;DHT22;42608;52.776;6.968;2022-10-26T15:40:07;17.70;99.90
56725;DHT22;42608;52.776;6.968;2022-10-26T15:42:36;17.70;99.90
56725;DHT22;42608;52.776;6.968;2022-10-26T15:45:02;17.70;99.90
56725;DHT22;42608;52.776;6.968;2022-10-26T15:47:30;17.60;99.90
56725;DHT22;42608;52.776;6.968;2022-10-26T15:49:57;17.60;99.90
56725;DHT22;42608;52.776;6.968;2022-10-26T15:52:22;17.60;99.90
56725;DHT22;42608;52.776;6.968;2022-10-26T15:54:48;17.50;99.90
56725;DHT22;42608;52.776;6.968;2022-10-26T15:57:13;17.50;99.90
56725;DHT22;42608;52.776;6.968;2022-10-26T15:59:40;17.50;99.90
56725;DHT22;42608;52.776;6.968;2022-10-26T16:02:12;17.40;99.90
56725;DHT22;42608;52.776;6.968;2022-10-26T16:04:38;17.40;99.90
56725;DHT22;42608;52.776;6.968;2022-10-26T16:07:03;17.40;99.90
56725;DHT22;42608;52.776;6.968;2022-10-26T16:09:31;17.30;99.90
56725;DHT22;42608;52.776;6.968;2022-10-26T16:11:57;17.30;99.90
56725;DHT22;42608;52.776;6.968;2022-10-26T16:14:22;17.30;99.90
56725;DHT22;42608;52.776;6.968;2022-10-26T16:16:48;17.30;99.90
56725;DHT22;42608;52.776;6.968;2022-10-26T16:19:13;17.20;99.90
56725;DHT22;42608;52.776;6.968;2022-10-26T16:21:39;17.20;99.90
56725;DHT22;42608;52.776;6.968;2022-10-26T16:24:06;17.20;99.90
56725;DHT22;42608;52.776;6.968;2022-10-26T16:26:31;17.10;99.90
56725;DHT22;42608;52.776;6.968;2022-10-26T16:28:57;17.10;99.90
56725;DHT22;42608;52.776;6.968;2022-10-26T16:31:22;17.10;99.90
56725;DHT22;42608;52.776;6.968;2022-10-26T16:33:48;17.10;99.90
56725;DHT22;42608;52.776;6.968;2022-10-26T16:36:14;17.10;99.90
56725;DHT22;42608;52.776;6.968;2022-10-26T16:38:39;17.10;99.90
56725;DHT22;42608;52.776;6.968;2022-10-26T16:41:06;17.10;99.90
56725;DHT22;42608;52.776;6.968;2022-10-26T16:43:33;17.00;99.90
56725;DHT22;42608;52.776;6.968;2022-10-26T16:45:59;17.00;99.90
56725;DHT22;42608;52.776;6.968;2022-10-26T16:48:25;17.00;99.90
56725;DHT22;42608;52.776;6.968;2022-10-26T16:50:50;17.00;99.90
56725;DHT22;42608;52.776;6.968;2022-10-26T16:53:16;16.90;99.90
56725;DHT22;42608;52.776;6.968;2022-10-26T16:55:41;16.90;99.90
56725;DHT22;42608;52.776;6.968;2022-10-26T16:58:08;16.90;99.90
56725;DHT22;42608;52.776;6.968;2022-10-26T17:00:34;16.80;99.90
56725;DHT22;42608;52.776;6.968;2022-10-26T17:03:00;16.80;99.90
56725;DHT22;42608;52.776;6.968;2022-10-26T17:05:27;16.80;99.90
56725;DHT22;42608;52.776;6.968;2022-10-26T17:07:53;16.80;99.90
56725;DHT22;42608;52.776;6.968;2022-10-26T17:10:18;16.70;99.90
56725;DHT22;42608;52.776;6.968;2022-10-26T17:12:44;16.70;99.90
56725;DHT22;42608;52.776;6.968;2022-10-26T17:15:10;16.70;99.90
56725;DHT22;42608;52.776;6.968;2022-10-26T17:17:35;16.70;99.90
56725;DHT22;42608;52.776;6.968;2022-10-26T17:20:01;16.60;99.90
56725;DHT22;42608;52.776;6.968;2022-10-26T17:22:26;16.60;99.90
56725;DHT22;42608;52.776;6.968;2022-10-26T17:24:52;16.60;99.90
56725;DHT22;42608;52.776;6.968;2022-10-26T17:27:18;16.60;99.90
56725;DHT22;42608;52.776;6.968;2022-10-26T17:29:44;16.60;99.90
56725;DHT22;42608;52.776;6.968;2022-10-26T17:32:10;16.50;99.90
56725;DHT22;42608;52.776;6.968;2022-10-26T17:34:35;16.60;99.90
56725;DHT22;42608;52.776;6.968;2022-10-26T17:37:01;16.60;99.90
56725;DHT22;42608;52.776;6.968;2022-10-26T17:39:26;16.60;99.90